createdAt,value
2023-05-01T00:00:39.774Z,12.25
2023-05-01T00:01:41.588Z,12.25
2023-05-01T00:02:43.255Z,12.31
2023-05-01T00:03:45.010Z,12.35
2023-05-01T00:04:46.950Z,12.38
2023-05-01T00:05:48.578Z,12.41
2023-05-01T00:06:50.307Z,12.48
2023-05-01T00:07:51.912Z,12.58
2023-05-01T00:08:53.554Z,12.68
2023-05-01T00:09:55.448Z,12.71
2023-05-01T00:10:57.213Z,12.75
2023-05-01T00:11:58.816Z,12.83
2023-05-01T00:13:00.360Z,12.88
2023-05-01T00:14:01.883Z,12.78
2023-05-01T00:15:03.635Z,12.75
2023-05-01T00:16:12.593Z,12.73
2023-05-01T00:17:14.540Z,12.59
2023-05-01T00:18:16.884Z,12.57
2023-05-01T00:19:19.096Z,12.45
2023-05-01T00:20:20.700Z,12.29
2023-05-01T00:21:22.304Z,12.24
2023-05-01T00:22:23.974Z,12.27
2023-05-01T00:23:25.486Z,12.12
2023-05-01T00:24:27.584Z,11.91
2023-05-01T00:25:29.403Z,11.80
2023-05-01T00:26:32.122Z,11.73
2023-05-01T00:27:33.717Z,11.66
2023-05-01T00:28:35.306Z,11.60
2023-05-01T00:29:36.845Z,11.54
2023-05-01T00:30:38.441Z,11.51
2023-05-01T00:31:42.308Z,11.60
2023-05-01T00:32:43.943Z,11.68
2023-05-01T00:33:45.551Z,11.74
2023-05-01T00:34:48.396Z,11.80
2023-05-01T00:35:51.398Z,11.87
2023-05-01T00:36:52.915Z,11.98
2023-05-01T00:37:54.432Z,11.95
2023-05-01T00:38:56.081Z,11.94
2023-05-01T00:39:58.059Z,11.97
2023-05-01T00:40:59.886Z,11.99
2023-05-01T00:42:02.185Z,12.02
2023-05-01T00:43:03.752Z,12.04
2023-05-01T00:44:05.764Z,12.13
2023-05-01T00:45:08.315Z,12.19
2023-05-01T00:46:11.266Z,12.22
2023-05-01T00:47:13.516Z,12.24
2023-05-01T00:48:15.539Z,12.22
2023-05-01T00:49:17.737Z,12.23
2023-05-01T00:50:19.382Z,12.27
2023-05-01T00:51:22.346Z,12.27
2023-05-01T00:52:24.581Z,12.12
2023-05-01T00:53:28.281Z,11.98
2023-05-01T00:54:30.067Z,11.93
2023-05-01T00:55:33.248Z,11.86
2023-05-01T00:56:34.939Z,11.77
2023-05-01T00:57:37.135Z,11.86
2023-05-01T00:58:39.482Z,11.93
2023-05-01T00:59:41.323Z,11.91
2023-05-01T01:00:43.494Z,11.90
2023-05-01T01:01:45.215Z,11.99
2023-05-01T01:02:46.900Z,12.09
2023-05-01T01:03:48.822Z,12.14
2023-05-01T01:04:50.706Z,12.21
2023-05-01T01:06:00.377Z,12.24
2023-05-01T01:07:15.587Z,12.15
2023-05-01T01:08:40.636Z,12.23
2023-05-01T01:09:52.509Z,12.26
2023-05-01T01:11:12.859Z,12.33
2023-05-01T01:12:26.326Z,12.39
2023-05-01T01:13:32.498Z,12.44
2023-05-01T01:14:38.715Z,12.49
2023-05-01T01:15:48.674Z,12.55
2023-05-01T01:17:04.630Z,12.60
2023-05-01T01:18:19.281Z,12.66
2023-05-01T01:19:44.434Z,12.71
2023-05-01T01:21:16.141Z,12.77
2023-05-01T01:22:23.451Z,12.70
2023-05-01T01:23:30.854Z,12.61
2023-05-01T01:24:59.296Z,12.51
2023-05-01T01:26:13.677Z,12.42
2023-05-01T01:27:18.305Z,12.25
2023-05-01T01:28:57.143Z,12.12
2023-05-01T01:30:32.319Z,12.06
2023-05-01T01:31:56.853Z,11.96
2023-05-01T01:33:41.679Z,11.92
2023-05-01T01:34:58.764Z,11.83
2023-05-01T01:36:07.445Z,11.86
2023-05-01T01:37:17.497Z,11.86
2023-05-01T01:38:28.788Z,11.65
2023-05-01T01:40:05.386Z,11.44
2023-05-01T01:41:19.962Z,11.39
2023-05-01T01:42:35.166Z,11.30
2023-05-01T01:43:42.477Z,11.25
2023-05-01T01:44:51.748Z,11.20
2023-05-01T01:46:00.565Z,11.19
2023-05-01T01:47:06.963Z,11.10
2023-05-01T01:48:16.175Z,11.14
2023-05-01T01:49:23.349Z,11.19
2023-05-01T01:50:27.116Z,11.22
2023-05-01T01:51:29.668Z,11.22
2023-05-01T01:52:33.373Z,11.22
2023-05-01T01:53:37.694Z,11.26
2023-05-01T01:54:43.539Z,11.23
2023-05-01T01:55:48.175Z,11.20
2023-05-01T01:56:51.944Z,11.19
2023-05-01T01:57:53.915Z,11.23
2023-05-01T01:58:56.970Z,11.31
2023-05-01T01:59:58.819Z,11.35
2023-05-01T02:01:01.360Z,11.36
2023-05-01T02:02:05.165Z,11.28
2023-05-01T02:03:09.299Z,11.17
2023-05-01T02:04:12.252Z,11.15
2023-05-01T02:05:16.198Z,11.10
2023-05-01T02:06:17.896Z,11.06
2023-05-01T02:07:20.652Z,11.02
2023-05-01T02:08:24.649Z,11.00
2023-05-01T02:09:28.589Z,10.86
2023-05-01T02:10:30.733Z,10.74
2023-05-01T02:11:34.007Z,10.73
2023-05-01T02:12:36.862Z,10.75
2023-05-01T02:13:40.308Z,10.83
2023-05-01T02:14:42.957Z,10.96
2023-05-01T02:15:45.967Z,11.06
2023-05-01T02:16:50.198Z,11.17
2023-05-01T02:17:52.858Z,11.25
2023-05-01T02:18:56.077Z,11.29
2023-05-01T02:19:58.039Z,11.40
2023-05-01T02:21:00.392Z,11.51
2023-05-01T02:22:05.378Z,11.62
2023-05-01T02:23:07.984Z,11.71
2023-05-01T02:24:11.796Z,11.77
2023-05-01T02:25:15.065Z,11.82
2023-05-01T02:26:18.309Z,11.84
2023-05-01T02:27:40.863Z,11.82
2023-05-01T02:28:42.989Z,11.79
2023-05-01T02:29:44.839Z,11.74
2023-05-01T02:30:47.135Z,11.53
2023-05-01T02:31:48.794Z,11.35
2023-05-01T02:32:50.681Z,11.29
2023-05-01T02:33:52.324Z,11.19
2023-05-01T02:34:54.402Z,11.13
2023-05-01T02:35:55.948Z,11.15
2023-05-01T02:36:57.485Z,11.07
2023-05-01T02:37:59.058Z,11.10
2023-05-01T02:39:01.563Z,11.09
2023-05-01T02:40:04.181Z,11.08
2023-05-01T02:41:07.804Z,11.11
2023-05-01T02:42:10.642Z,11.07
2023-05-01T02:43:15.677Z,11.03
2023-05-01T02:44:19.000Z,10.91
2023-05-01T02:45:23.670Z,10.76
2023-05-01T02:46:27.451Z,10.68
2023-05-01T02:47:32.264Z,10.79
2023-05-01T02:48:35.303Z,10.83
2023-05-01T02:49:38.050Z,10.79
2023-05-01T02:50:43.090Z,10.77
2023-05-01T02:51:46.899Z,10.78
2023-05-01T02:52:48.664Z,10.65
2023-05-01T02:53:50.328Z,10.60
2023-05-01T02:54:51.979Z,10.68
2023-05-01T02:55:53.840Z,10.72
2023-05-01T02:56:55.804Z,10.78
2023-05-01T02:58:00.220Z,10.88
2023-05-01T02:59:02.038Z,10.92
2023-05-01T03:00:04.587Z,10.91
2023-05-01T03:01:06.188Z,10.97
2023-05-01T03:02:07.792Z,10.96
2023-05-01T03:03:09.367Z,11.05
2023-05-01T03:04:10.978Z,11.14
2023-05-01T03:05:12.621Z,11.18
2023-05-01T03:06:14.412Z,11.23
2023-05-01T03:07:16.143Z,11.20
2023-05-01T03:08:17.835Z,11.18
2023-05-01T03:09:19.503Z,11.25
2023-05-01T03:10:21.114Z,11.35
2023-05-01T03:11:24.450Z,11.44
2023-05-01T03:12:26.046Z,11.50
2023-05-01T03:13:27.936Z,11.56
2023-05-01T03:14:29.524Z,11.58
2023-05-01T03:15:31.072Z,11.54
2023-05-01T03:16:32.663Z,11.51
2023-05-01T03:17:34.428Z,11.51
2023-05-01T03:18:36.104Z,11.50
2023-05-01T03:19:37.654Z,11.55
2023-05-01T03:20:39.364Z,11.61
2023-05-01T03:21:40.970Z,11.69
2023-05-01T03:22:42.531Z,11.75
2023-05-01T03:23:44.143Z,11.77
2023-05-01T03:24:47.580Z,11.74
2023-05-01T03:25:49.787Z,11.73
2023-05-01T03:26:51.307Z,11.76
2023-05-01T03:27:54.918Z,11.79
2023-05-01T03:28:56.877Z,11.80
2023-05-01T03:29:58.509Z,11.85
2023-05-01T03:31:00.472Z,11.87
2023-05-01T03:32:02.170Z,11.90
2023-05-01T03:33:03.919Z,11.93
2023-05-01T03:34:05.482Z,11.94
2023-05-01T03:35:07.873Z,11.99
2023-05-01T03:36:12.503Z,12.04
2023-05-01T03:37:14.749Z,12.08
2023-05-01T03:38:16.430Z,12.12
2023-05-01T03:39:17.998Z,12.16
2023-05-01T03:40:19.781Z,12.22
2023-05-01T03:41:21.518Z,12.27
2023-05-01T03:42:23.334Z,12.32
2023-05-01T03:43:25.874Z,12.38
2023-05-01T03:44:27.538Z,12.43
2023-05-01T03:45:29.222Z,12.47
2023-05-01T03:46:30.845Z,12.51
2023-05-01T03:47:32.436Z,12.50
2023-05-01T03:48:33.974Z,12.52
2023-05-01T03:49:35.554Z,12.53
2023-05-01T03:50:37.406Z,12.55
2023-05-01T03:51:38.991Z,12.59
2023-05-01T03:52:40.507Z,12.60
2023-05-01T03:53:42.111Z,12.62
2023-05-01T03:54:44.309Z,12.65
2023-05-01T03:55:45.847Z,12.70
2023-05-01T03:56:47.832Z,12.67
2023-05-01T03:57:49.448Z,12.61
2023-05-01T03:58:51.281Z,12.55
2023-05-01T03:59:53.326Z,12.50
2023-05-01T04:00:56.994Z,12.32
2023-05-01T04:01:58.689Z,12.27
2023-05-01T04:03:00.394Z,12.30
2023-05-01T04:04:02.438Z,12.29
2023-05-01T04:05:04.312Z,12.34
2023-05-01T04:06:06.424Z,12.41
2023-05-01T04:07:08.052Z,12.49
2023-05-01T04:08:09.599Z,12.52
2023-05-01T04:09:11.153Z,12.55
2023-05-01T04:10:12.864Z,12.55
2023-05-01T04:11:14.406Z,12.48
2023-05-01T04:12:15.950Z,12.44
2023-05-01T04:13:17.594Z,12.47
2023-05-01T04:14:19.154Z,12.45
2023-05-01T04:15:22.753Z,12.47
2023-05-01T04:16:25.049Z,12.50
2023-05-01T04:17:27.535Z,12.55
2023-05-01T04:18:29.097Z,12.67
2023-05-01T04:19:30.646Z,12.76
2023-05-01T04:20:33.089Z,12.80
2023-05-01T04:21:35.160Z,12.86
2023-05-01T04:22:37.314Z,12.91
2023-05-01T04:23:38.884Z,12.91
2023-05-01T04:24:40.582Z,12.85
2023-05-01T04:25:42.197Z,12.90
2023-05-01T04:26:43.824Z,12.95
2023-05-01T04:27:45.402Z,13.00
2023-05-01T04:28:46.918Z,13.06
2023-05-01T04:29:48.553Z,13.13
2023-05-01T04:30:50.294Z,13.22
2023-05-01T04:31:51.910Z,13.31
2023-05-01T04:32:54.200Z,13.41
2023-05-01T04:33:56.062Z,13.53
2023-05-01T04:34:57.956Z,13.65
2023-05-01T04:35:59.764Z,13.72
2023-05-01T04:37:03.028Z,13.77
2023-05-01T04:38:05.889Z,13.85
2023-05-01T04:39:08.355Z,13.89
2023-05-01T04:40:11.814Z,13.98
2023-05-01T04:41:13.499Z,13.98
2023-05-01T04:42:15.119Z,13.99
2023-05-01T04:43:16.688Z,14.02
2023-05-01T04:44:18.288Z,14.02
2023-05-01T04:45:19.844Z,13.99
2023-05-01T04:46:21.461Z,14.00
2023-05-01T04:47:23.078Z,14.02
2023-05-01T04:48:24.675Z,14.04
2023-05-01T04:49:26.241Z,14.06
2023-05-01T04:50:27.846Z,14.07
2023-05-01T04:51:29.670Z,14.12
2023-05-01T04:52:31.245Z,14.15
2023-05-01T04:53:32.787Z,14.19
2023-05-01T04:54:34.398Z,14.26
2023-05-01T04:55:36.027Z,14.27
2023-05-01T04:56:37.548Z,14.29
2023-05-01T04:57:39.150Z,14.27
2023-05-01T04:58:40.738Z,14.25
2023-05-01T04:59:43.256Z,14.22
2023-05-01T05:00:44.822Z,14.14
2023-05-01T05:01:46.541Z,14.14
2023-05-01T05:02:48.242Z,14.14
2023-05-01T05:03:50.367Z,14.17
2023-05-01T05:04:53.911Z,14.16
2023-05-01T05:05:55.915Z,14.11
2023-05-01T05:06:57.775Z,14.11
2023-05-01T05:07:59.778Z,14.09
2023-05-01T05:09:01.448Z,14.06
2023-05-01T05:10:03.090Z,14.07
2023-05-01T05:11:04.641Z,14.13
2023-05-01T05:12:06.217Z,14.13
2023-05-01T05:13:07.752Z,14.16
2023-05-01T05:14:10.398Z,14.18
2023-05-01T05:15:12.185Z,14.20
2023-05-01T05:16:14.088Z,14.23
2023-05-01T05:17:15.669Z,14.25
2023-05-01T05:18:17.295Z,14.25
2023-05-01T05:19:18.886Z,14.23
2023-05-01T05:20:20.547Z,14.19
2023-05-01T05:21:22.066Z,14.12
2023-05-01T05:22:24.223Z,14.16
2023-05-01T05:23:25.852Z,14.17
2023-05-01T05:24:27.372Z,14.13
2023-05-01T05:25:28.960Z,14.16
2023-05-01T05:26:30.578Z,14.18
2023-05-01T05:27:36.483Z,14.21
2023-05-01T05:28:37.973Z,14.21
2023-05-01T05:29:40.038Z,14.32
2023-05-01T05:30:41.617Z,14.45
2023-05-01T05:31:43.607Z,14.52
2023-05-01T05:32:47.326Z,14.55
2023-05-01T05:33:49.054Z,14.39
2023-05-01T05:34:50.603Z,14.43
2023-05-01T05:35:52.472Z,14.58
2023-05-01T05:36:54.044Z,14.50
2023-05-01T05:37:55.649Z,14.58
2023-05-01T05:38:57.174Z,14.69
2023-05-01T05:39:58.943Z,14.83
2023-05-01T05:41:01.819Z,14.99
2023-05-01T05:42:03.788Z,15.13
2023-05-01T05:43:05.452Z,15.34
2023-05-01T05:44:07.057Z,15.36
2023-05-01T05:45:09.616Z,15.42
2023-05-01T05:46:11.675Z,15.60
2023-05-01T05:47:13.222Z,15.66
2023-05-01T05:48:15.054Z,15.89
2023-05-01T05:49:16.682Z,16.05
2023-05-01T05:50:18.312Z,16.25
2023-05-01T05:51:19.911Z,16.38
2023-05-01T05:52:21.766Z,16.40
2023-05-01T05:53:25.778Z,16.45
2023-05-01T05:54:27.893Z,16.65
2023-05-01T05:55:29.443Z,16.72
2023-05-01T05:56:31.063Z,16.84
2023-05-01T05:57:32.592Z,16.90
2023-05-01T05:58:34.161Z,16.97
2023-05-01T05:59:36.464Z,17.10
2023-05-01T06:00:38.214Z,17.13
2023-05-01T06:01:40.350Z,17.21
2023-05-01T06:02:42.002Z,17.04
2023-05-01T06:03:43.680Z,16.96
2023-05-01T06:04:45.575Z,17.11
2023-05-01T06:05:47.519Z,17.23
2023-05-01T06:06:49.176Z,17.33
2023-05-01T06:07:51.248Z,17.51
2023-05-01T06:08:52.862Z,17.26
2023-05-01T06:09:55.392Z,16.85
2023-05-01T06:10:58.960Z,16.70
2023-05-01T06:12:00.503Z,16.62
2023-05-01T06:13:13.231Z,16.80
2023-05-01T06:14:16.978Z,16.69
2023-05-01T06:15:18.522Z,16.83
2023-05-01T06:16:20.139Z,16.80
2023-05-01T06:17:22.227Z,16.73
2023-05-01T06:18:23.791Z,16.94
2023-05-01T06:19:25.750Z,17.32
2023-05-01T06:20:27.406Z,17.53
2023-05-01T06:21:29.252Z,17.62
2023-05-01T06:22:30.818Z,17.64
2023-05-01T06:23:33.972Z,17.78
2023-05-01T06:24:36.852Z,17.83
2023-05-01T06:25:38.446Z,17.87
2023-05-01T06:26:39.995Z,18.09
2023-05-01T06:27:42.097Z,18.29
2023-05-01T06:28:43.595Z,18.48
2023-05-01T06:29:45.163Z,18.63
2023-05-01T06:30:46.699Z,18.55
2023-05-01T06:31:48.305Z,18.56
2023-05-01T06:32:50.299Z,18.64
2023-05-01T06:33:51.984Z,18.73
2023-05-01T06:34:53.532Z,18.66
2023-05-01T06:35:55.895Z,18.60
2023-05-01T06:36:57.482Z,18.66
2023-05-01T06:38:00.300Z,18.83
2023-05-01T06:39:01.955Z,19.07
2023-05-01T06:40:04.737Z,19.25
2023-05-01T06:41:07.221Z,19.44
2023-05-01T06:42:11.498Z,19.58
2023-05-01T06:43:13.163Z,19.68
2023-05-01T06:44:15.602Z,19.75
2023-05-01T06:45:17.386Z,19.86
2023-05-01T06:46:18.984Z,19.91
2023-05-01T06:47:21.484Z,19.98
2023-05-01T06:48:23.498Z,20.07
2023-05-01T06:49:25.074Z,20.13
2023-05-01T06:50:26.666Z,20.05
2023-05-01T06:51:28.220Z,19.98
2023-05-01T06:52:29.757Z,20.00
2023-05-01T06:53:31.448Z,20.02
2023-05-01T06:54:33.038Z,20.02
2023-05-01T06:55:35.863Z,19.92
2023-05-01T06:56:37.651Z,19.92
2023-05-01T06:57:40.127Z,19.99
2023-05-01T06:58:41.658Z,20.14
2023-05-01T06:59:43.166Z,20.19
2023-05-01T07:00:44.760Z,20.04
2023-05-01T07:01:46.514Z,19.77
2023-05-01T07:02:48.216Z,19.32
2023-05-01T07:03:49.848Z,19.31
2023-05-01T07:04:51.416Z,19.39
2023-05-01T07:05:53.570Z,19.32
2023-05-01T07:06:55.119Z,19.10
2023-05-01T07:08:01.125Z,18.64
2023-05-01T07:09:05.172Z,18.60
2023-05-01T07:10:07.173Z,18.60
2023-05-01T07:11:08.855Z,18.53
2023-05-01T07:12:10.481Z,18.42
2023-05-01T07:13:12.107Z,18.56
2023-05-01T07:14:13.784Z,18.80
2023-05-01T07:15:16.438Z,18.90
2023-05-01T07:16:18.209Z,18.81
2023-05-01T07:17:19.841Z,18.80
2023-05-01T07:18:21.527Z,18.77
2023-05-01T07:19:23.026Z,18.99
2023-05-01T07:20:24.764Z,19.02
2023-05-01T07:21:26.475Z,19.30
2023-05-01T07:22:29.269Z,19.54
2023-05-01T07:23:31.221Z,19.23
2023-05-01T07:24:32.930Z,18.91
2023-05-01T07:25:34.490Z,19.00
2023-05-01T07:26:36.282Z,19.06
2023-05-01T07:27:37.864Z,19.26
2023-05-01T07:28:39.482Z,19.41
2023-05-01T07:29:41.057Z,19.70
2023-05-01T07:30:42.584Z,19.78
2023-05-01T07:31:46.222Z,19.72
2023-05-01T07:32:48.223Z,19.66
2023-05-01T07:33:51.018Z,19.76
2023-05-01T07:34:52.962Z,19.32
2023-05-01T07:35:54.503Z,19.30
2023-05-01T07:36:57.106Z,19.48
2023-05-01T07:37:58.712Z,19.58
2023-05-01T07:39:01.078Z,19.59
2023-05-01T07:40:02.829Z,19.49
2023-05-01T07:41:04.385Z,19.50
2023-05-01T07:42:05.934Z,19.44
2023-05-01T07:43:11.278Z,19.28
2023-05-01T07:44:13.858Z,18.90
2023-05-01T07:45:15.481Z,18.86
2023-05-01T07:46:17.175Z,18.79
2023-05-01T07:47:19.479Z,18.67
2023-05-01T07:48:20.971Z,18.81
2023-05-01T07:49:22.580Z,19.15
2023-05-01T07:50:25.917Z,19.41
2023-05-01T07:51:27.617Z,19.77
2023-05-01T07:52:29.252Z,19.91
2023-05-01T07:53:30.802Z,19.85
2023-05-01T07:54:33.791Z,19.99
2023-05-01T07:55:36.123Z,20.18
2023-05-01T07:56:38.490Z,20.46
2023-05-01T07:57:40.105Z,20.74
2023-05-01T07:58:42.642Z,20.98
2023-05-01T07:59:44.469Z,20.98
2023-05-01T08:00:46.274Z,21.03
2023-05-01T08:01:47.922Z,21.09
2023-05-01T08:02:51.415Z,21.15
2023-05-01T08:03:53.221Z,21.31
2023-05-01T08:04:54.943Z,21.42
2023-05-01T08:05:57.575Z,21.61
2023-05-01T08:06:59.221Z,21.77
2023-05-01T08:08:01.369Z,21.91
2023-05-01T08:09:03.015Z,21.92
2023-05-01T08:10:05.206Z,22.09
2023-05-01T08:11:07.117Z,22.19
2023-05-01T08:12:08.696Z,22.30
2023-05-01T08:13:10.239Z,22.47
2023-05-01T08:14:11.836Z,22.59
2023-05-01T08:15:13.406Z,22.64
2023-05-01T08:16:14.998Z,22.60
2023-05-01T08:17:16.992Z,22.28
2023-05-01T08:18:21.377Z,22.20
2023-05-01T08:19:23.743Z,22.22
2023-05-01T08:20:25.321Z,22.39
2023-05-01T08:21:27.025Z,22.53
2023-05-01T08:22:28.747Z,22.64
2023-05-01T08:23:30.693Z,22.23
2023-05-01T08:24:32.476Z,22.07
2023-05-01T08:25:34.078Z,21.87
2023-05-01T08:26:35.678Z,21.83
2023-05-01T08:27:37.396Z,21.97
2023-05-01T08:28:38.958Z,22.09
2023-05-01T08:29:40.661Z,22.11
2023-05-01T08:30:42.273Z,22.14
2023-05-01T08:31:44.009Z,22.01
2023-05-01T08:32:45.763Z,21.93
2023-05-01T08:33:47.356Z,22.00
2023-05-01T08:34:48.918Z,22.09
2023-05-01T08:35:51.284Z,21.84
2023-05-01T08:36:52.878Z,21.58
2023-05-01T08:37:54.495Z,21.53
2023-05-01T08:38:56.060Z,21.46
2023-05-01T08:39:57.879Z,21.23
2023-05-01T08:41:01.709Z,21.11
2023-05-01T08:42:03.571Z,21.09
2023-05-01T08:43:05.265Z,21.32
2023-05-01T08:44:09.258Z,21.52
2023-05-01T08:45:11.909Z,21.82
2023-05-01T08:46:18.973Z,22.00
2023-05-01T08:47:21.177Z,22.11
2023-05-01T08:48:25.445Z,22.15
2023-05-01T08:49:27.758Z,22.17
2023-05-01T08:50:29.752Z,22.17
2023-05-01T08:51:33.429Z,22.17
2023-05-01T08:52:36.510Z,22.16
2023-05-01T08:53:38.833Z,22.23
2023-05-01T08:54:43.782Z,22.21
2023-05-01T08:55:48.604Z,22.19
2023-05-01T08:56:52.772Z,22.29
2023-05-01T08:57:55.641Z,22.37
2023-05-01T08:58:58.652Z,22.52
2023-05-01T09:00:01.044Z,22.68
2023-05-01T09:01:03.229Z,22.71
2023-05-01T09:02:06.413Z,22.72
2023-05-01T09:03:11.482Z,22.62
2023-05-01T09:04:14.746Z,22.62
2023-05-01T09:05:18.194Z,22.67
2023-05-01T09:06:20.493Z,22.54
2023-05-01T09:07:22.507Z,22.54
2023-05-01T09:08:24.161Z,22.58
2023-05-01T09:09:25.744Z,22.64
2023-05-01T09:10:27.515Z,22.74
2023-05-01T09:11:30.173Z,22.80
2023-05-01T09:12:35.487Z,22.71
2023-05-01T09:13:37.087Z,22.72
2023-05-01T09:14:39.016Z,22.68
2023-05-01T09:15:41.078Z,22.73
2023-05-01T09:16:42.689Z,22.84
2023-05-01T09:17:44.981Z,22.91
2023-05-01T09:18:47.141Z,22.85
2023-05-01T09:19:52.848Z,22.88
2023-05-01T09:20:55.244Z,22.64
2023-05-01T09:21:56.909Z,22.60
2023-05-01T09:22:59.534Z,22.73
2023-05-01T09:24:02.715Z,22.81
2023-05-01T09:25:04.572Z,22.85
2023-05-01T09:26:07.207Z,22.87
2023-05-01T09:27:09.341Z,22.87
2023-05-01T09:28:10.931Z,22.84
2023-05-01T09:29:12.516Z,22.77
2023-05-01T09:30:38.411Z,22.93
2023-05-01T09:31:40.600Z,22.91
2023-05-01T09:32:42.800Z,22.89
2023-05-01T09:34:01.470Z,22.93
2023-05-01T09:35:10.107Z,22.92
2023-05-01T09:36:17.435Z,22.95
2023-05-01T09:37:29.715Z,23.02
2023-05-01T09:38:31.841Z,23.14
2023-05-01T09:39:33.463Z,22.98
2023-05-01T09:40:35.054Z,22.99
2023-05-01T09:41:51.362Z,23.04
2023-05-01T09:42:56.200Z,22.98
2023-05-01T09:43:58.142Z,23.15
2023-05-01T09:45:05.168Z,23.25
2023-05-01T09:46:11.951Z,23.35
2023-05-01T09:47:13.960Z,23.44
2023-05-01T09:48:16.978Z,23.48
2023-05-01T09:49:18.531Z,23.60
2023-05-01T09:50:31.779Z,23.73
2023-05-01T09:51:34.875Z,23.76
2023-05-01T09:52:36.453Z,23.78
2023-05-01T09:53:39.635Z,23.78
2023-05-01T09:54:41.782Z,23.70
2023-05-01T09:55:52.414Z,23.72
2023-05-01T09:56:53.942Z,23.77
2023-05-01T09:57:55.491Z,23.72
2023-05-01T09:58:59.019Z,23.71
2023-05-01T10:00:10.307Z,23.72
2023-05-01T10:01:12.192Z,23.82
2023-05-01T10:02:30.686Z,23.86
2023-05-01T10:03:35.004Z,23.93
2023-05-01T10:04:36.794Z,23.98
2023-05-01T10:05:44.764Z,23.87
2023-05-01T10:06:46.506Z,23.87
2023-05-01T10:08:02.255Z,23.81
2023-05-01T10:09:07.077Z,23.76
2023-05-01T10:10:22.294Z,23.71
2023-05-01T10:11:24.188Z,23.70
2023-05-01T10:12:28.137Z,23.61
2023-05-01T10:13:30.857Z,23.58
2023-05-01T10:14:38.536Z,23.57
2023-05-01T10:15:40.130Z,23.46
2023-05-01T10:16:41.752Z,23.35
2023-05-01T10:17:44.796Z,23.25
2023-05-01T10:18:46.623Z,23.21
2023-05-01T10:19:49.089Z,23.24
2023-05-01T10:20:51.696Z,23.26
2023-05-01T10:21:53.571Z,23.18
2023-05-01T10:22:55.678Z,23.04
2023-05-01T10:23:57.616Z,22.95
2023-05-01T10:25:00.384Z,23.03
2023-05-01T10:26:05.266Z,23.15
2023-05-01T10:27:08.060Z,23.17
2023-05-01T10:28:10.133Z,23.10
2023-05-01T10:29:12.679Z,23.09
2023-05-01T10:30:17.269Z,23.03
2023-05-01T10:31:18.913Z,23.06
2023-05-01T10:32:21.686Z,22.96
2023-05-01T10:33:23.726Z,22.88
2023-05-01T10:34:28.408Z,22.97
2023-05-01T10:35:34.631Z,22.93
2023-05-01T10:36:47.630Z,23.09
2023-05-01T10:37:58.594Z,23.24
2023-05-01T10:39:01.275Z,23.32
2023-05-01T10:40:41.250Z,23.47
2023-05-01T10:41:58.202Z,23.58
2023-05-01T10:43:31.168Z,23.61
2023-05-01T10:44:34.924Z,23.77
2023-05-01T10:45:36.832Z,23.81
2023-05-01T10:46:38.457Z,23.83
2023-05-01T10:47:43.228Z,23.87
2023-05-01T10:48:47.587Z,23.86
2023-05-01T10:50:12.034Z,23.80
2023-05-01T10:51:14.429Z,23.86
2023-05-01T10:52:16.006Z,23.92
2023-05-01T10:53:18.238Z,23.82
2023-05-01T10:54:20.459Z,23.54
2023-05-01T10:55:35.253Z,23.33
2023-05-01T10:56:36.787Z,23.37
2023-05-01T10:57:43.720Z,23.50
2023-05-01T10:58:51.470Z,23.61
2023-05-01T10:59:59.167Z,23.73
2023-05-01T11:01:30.252Z,23.92
2023-05-01T11:02:32.002Z,24.00
2023-05-01T11:03:33.514Z,23.96
2023-05-01T11:04:44.129Z,23.78
2023-05-01T11:06:01.056Z,23.54
2023-05-01T11:07:05.817Z,23.19
2023-05-01T11:08:34.998Z,23.17
2023-05-01T11:09:39.672Z,23.26
2023-05-01T11:10:41.500Z,23.29
2023-05-01T11:11:43.310Z,23.46
2023-05-01T11:12:51.757Z,23.59
2023-05-01T11:14:03.225Z,23.72
2023-05-01T11:15:08.871Z,23.80
2023-05-01T11:16:46.098Z,23.87
2023-05-01T11:17:49.846Z,23.69
2023-05-01T11:18:51.476Z,23.68
2023-05-01T11:19:53.029Z,23.42
2023-05-01T11:20:54.633Z,23.52
2023-05-01T11:21:57.336Z,23.69
2023-05-01T11:22:59.376Z,23.76
2023-05-01T11:24:01.714Z,23.86
2023-05-01T11:25:04.622Z,23.99
2023-05-01T11:26:06.373Z,23.97
2023-05-01T11:27:08.932Z,23.77
2023-05-01T11:28:11.637Z,23.87
2023-05-01T11:29:13.197Z,23.86
2023-05-01T11:30:14.904Z,23.62
2023-05-01T11:31:18.986Z,23.65
2023-05-01T11:32:25.360Z,23.83
2023-05-01T11:33:27.550Z,24.00
2023-05-01T11:34:36.878Z,24.09
2023-05-01T11:35:39.030Z,24.13
2023-05-01T11:36:51.670Z,24.00
2023-05-01T11:37:56.023Z,23.76
2023-05-01T11:39:01.970Z,23.74
2023-05-01T11:40:04.669Z,23.55
2023-05-01T11:41:06.372Z,23.65
2023-05-01T11:42:09.646Z,23.78
2023-05-01T11:43:12.682Z,23.99
2023-05-01T11:44:18.488Z,24.08
2023-05-01T11:45:20.641Z,24.17
2023-05-01T11:46:33.090Z,24.26
2023-05-01T11:47:34.864Z,24.38
2023-05-01T11:48:36.521Z,24.39
2023-05-01T11:49:38.989Z,24.44
2023-05-01T11:50:40.824Z,24.41
2023-05-01T11:51:42.423Z,24.07
2023-05-01T11:52:49.429Z,23.81
2023-05-01T11:54:04.491Z,23.51
2023-05-01T11:55:07.171Z,23.29
2023-05-01T11:56:26.581Z,23.27
2023-05-01T11:57:28.901Z,23.26
2023-05-01T11:58:33.008Z,23.00
2023-05-01T11:59:34.769Z,22.89
2023-05-01T12:00:41.860Z,22.73
2023-05-01T12:01:45.548Z,22.37
2023-05-01T12:03:08.832Z,21.51
2023-05-01T12:04:14.867Z,20.97
2023-05-01T12:05:17.366Z,20.72
2023-05-01T12:06:18.948Z,20.51
2023-05-01T12:07:24.010Z,20.07
2023-05-01T12:08:25.890Z,19.66
2023-05-01T12:09:28.232Z,19.65
2023-05-01T12:10:30.588Z,19.60
2023-05-01T12:11:32.216Z,19.42
2023-05-01T12:12:34.075Z,19.09
2023-05-01T12:13:35.982Z,18.94
2023-05-01T12:14:37.717Z,18.73
2023-05-01T12:15:45.092Z,18.70
2023-05-01T12:16:47.442Z,18.59
2023-05-01T12:17:50.272Z,18.51
2023-05-01T12:18:52.716Z,18.32
2023-05-01T12:19:54.333Z,18.19
2023-05-01T12:20:56.187Z,18.06
2023-05-01T12:22:09.473Z,17.98
2023-05-01T12:23:12.678Z,17.92
2023-05-01T12:24:16.484Z,17.87
2023-05-01T12:25:19.466Z,17.72
2023-05-01T12:26:25.801Z,17.58
2023-05-01T12:27:27.340Z,17.52
2023-05-01T12:28:29.209Z,17.52
2023-05-01T12:29:41.474Z,17.51
2023-05-01T12:30:44.938Z,17.35
2023-05-01T12:31:49.902Z,17.29
2023-05-01T12:32:52.258Z,17.09
2023-05-01T12:34:01.728Z,16.94
2023-05-01T12:35:15.522Z,16.91
2023-05-01T12:36:17.991Z,16.80
2023-05-01T12:37:19.588Z,16.71
2023-05-01T12:38:22.424Z,16.69
2023-05-01T12:39:24.318Z,16.55
2023-05-01T12:40:27.053Z,16.47
2023-05-01T12:41:45.943Z,16.42
2023-05-01T12:42:55.899Z,16.20
2023-05-01T12:43:57.950Z,16.03
2023-05-01T12:45:01.645Z,15.95
2023-05-01T12:46:04.708Z,15.85
2023-05-01T12:47:08.248Z,15.72
2023-05-01T12:48:16.170Z,15.70
2023-05-01T12:49:18.772Z,15.76
2023-05-01T12:50:21.082Z,15.68
2023-05-01T12:51:22.912Z,15.76
2023-05-01T12:52:27.773Z,15.68
2023-05-01T12:53:29.767Z,15.70
2023-05-01T12:54:33.381Z,15.73
2023-05-01T12:55:43.647Z,15.81
2023-05-01T12:56:46.294Z,15.88
2023-05-01T12:57:52.819Z,15.86
2023-05-01T12:58:55.336Z,15.91
2023-05-01T13:00:02.071Z,15.97
2023-05-01T13:01:04.024Z,16.04
2023-05-01T13:02:13.391Z,16.14
2023-05-01T13:03:18.918Z,16.21
2023-05-01T13:04:21.924Z,16.29
2023-05-01T13:05:23.528Z,16.41
2023-05-01T13:06:35.300Z,16.55
2023-05-01T13:07:38.378Z,16.66
2023-05-01T13:08:40.413Z,16.77
2023-05-01T13:09:56.592Z,16.76
2023-05-01T13:11:09.080Z,16.74
2023-05-01T13:12:12.044Z,16.79
2023-05-01T13:13:13.765Z,16.73
2023-05-01T13:14:15.462Z,16.75
2023-05-01T13:15:21.619Z,16.77
2023-05-01T13:16:24.755Z,16.77
2023-05-01T13:17:28.042Z,16.78
2023-05-01T13:18:30.934Z,16.84
2023-05-01T13:19:33.038Z,16.92
2023-05-01T13:20:36.355Z,17.04
2023-05-01T13:21:48.166Z,17.11
2023-05-01T13:22:49.744Z,17.18
2023-05-01T13:23:56.278Z,17.25
2023-05-01T13:24:58.116Z,17.24
2023-05-01T13:25:59.770Z,17.20
2023-05-01T13:27:04.258Z,17.17
2023-05-01T13:28:07.027Z,17.22
2023-05-01T13:29:15.348Z,17.30
2023-05-01T13:30:21.865Z,17.35
2023-05-01T13:31:23.491Z,17.44
2023-05-01T13:32:26.073Z,17.51
2023-05-01T13:33:31.465Z,17.65
2023-05-01T13:34:34.248Z,17.80
2023-05-01T13:35:36.295Z,17.94
2023-05-01T13:36:40.217Z,18.06
2023-05-01T13:37:41.963Z,18.22
2023-05-01T13:38:50.980Z,18.33
2023-05-01T13:39:58.160Z,18.45
2023-05-01T13:40:59.891Z,18.51
2023-05-01T13:42:03.868Z,18.55
2023-05-01T13:43:05.390Z,18.64